Current Conditions
Partly Cloudy
Conditions



Pressure
1028.92 (hPa) - 30.38 (inHG)
Visibility

10.0 (km) - 6.2 (miles)
   Temperature
13  °C
55°F
3  °C
Dewpoint
51  %
 Humidity
   Wind Speed
11  km/h
6  kts
7  mph
3.1  m/s
   Wind Direction
 10°
Due North
   Airport Data
EHAM
Location Amsterdam Airport Schiphol 20 km (12.43 mi)
Metar :EHAM 231355Z 01006KT 300V060 9999 FEW034 13/03 Q1029 NOSIG
Fri 23rd April 15:55 pm
   Raw Metar Info
Raw METAR is the most common format in the world for the transmission of observational weather data. It is highly standardized through the International Civil Aviation Organization (ICAO), which allows it to be understood throughout most of the world.
   API Info
Data Provided by
https://www.checkwx.com/weather/EHAM
   © Info
CSS/SVG/PHP scripts were developed by weather34.com for use in the weather34 template © 2015-2021

Guide Info provided by Metar-Wikipedia